sensor_id;sensor_type;location;lat;lon;timestamp;pressure;altitude;pressure_sealevel;temperature;humidity
10606;BME280;5350;42.698;23.148;2024-02-28T00:00:06;93958.00;;;7.58;100.00
10606;BME280;5350;42.698;23.148;2024-02-28T00:02:34;93961.69;;;7.47;100.00
10606;BME280;5350;42.698;23.148;2024-02-28T00:05:01;93959.84;;;7.42;100.00
10606;BME280;5350;42.698;23.148;2024-02-28T00:07:27;93953.56;;;7.48;100.00
10606;BME280;5350;42.698;23.148;2024-02-28T00:09:55;93962.75;;;7.51;100.00
10606;BME280;5350;42.698;23.148;2024-02-28T00:12:23;93965.34;;;7.51;100.00
10606;BME280;5350;42.698;23.148;2024-02-28T00:14:51;93957.50;;;7.46;100.00
10606;BME280;5350;42.698;23.148;2024-02-28T00:17:18;93972.66;;;7.44;100.00
10606;BME280;5350;42.698;23.148;2024-02-28T00:19:46;93963.78;;;7.55;100.00
10606;BME280;5350;42.698;23.148;2024-02-28T00:22:13;93961.41;;;7.58;100.00
10606;BME280;5350;42.698;23.148;2024-02-28T00:24:40;93961.41;;;7.58;100.00
10606;BME280;5350;42.698;23.148;2024-02-28T00:27:07;93971.13;;;7.63;100.00
10606;BME280;5350;42.698;23.148;2024-02-28T00:29:33;93962.22;;;7.59;100.00
10606;BME280;5350;42.698;23.148;2024-02-28T00:32:00;93970.06;;;7.59;100.00
10606;BME280;5350;42.698;23.148;2024-02-28T00:34:27;93966.38;;;7.60;100.00
10606;BME280;5350;42.698;23.148;2024-02-28T00:36:55;93965.09;;;7.62;100.00
10606;BME280;5350;42.698;23.148;2024-02-28T00:39:22;93961.69;;;7.62;100.00
10606;BME280;5350;42.698;23.148;2024-02-28T00:41:48;93964.81;;;7.64;100.00
10606;BME280;5350;42.698;23.148;2024-02-28T00:44:15;93964.53;;;7.20;100.00
10606;BME280;5350;42.698;23.148;2024-02-28T00:46:42;93963.47;;;7.11;100.00
10606;BME280;5350;42.698;23.148;2024-02-28T00:49:08;93969.00;;;7.19;100.00
10606;BME280;5350;42.698;23.148;2024-02-28T00:51:35;93970.84;;;7.34;100.00
10606;BME280;5350;42.698;23.148;2024-02-28T00:54:04;93966.09;;;7.26;100.00
10606;BME280;5350;42.698;23.148;2024-02-28T00:56:30;93955.13;;;7.19;100.00
10606;BME280;5350;42.698;23.148;2024-02-28T00:58:57;93969.50;;;7.37;100.00
10606;BME280;5350;42.698;23.148;2024-02-28T01:01:24;93970.03;;;7.28;100.00
10606;BME280;5350;42.698;23.148;2024-02-28T01:03:51;93973.94;;;7.21;100.00
10606;BME280;5350;42.698;23.148;2024-02-28T01:06:16;93965.06;;;7.27;100.00
10606;BME280;5350;42.698;23.148;2024-02-28T01:08:43;93963.25;;;7.28;100.00
10606;BME280;5350;42.698;23.148;2024-02-28T01:11:11;93971.88;;;7.23;100.00
10606;BME280;5350;42.698;23.148;2024-02-28T01:13:38;93972.66;;;7.34;100.00
10606;BME280;5350;42.698;23.148;2024-02-28T01:16:05;93972.63;;;7.13;100.00
10606;BME280;5350;42.698;23.148;2024-02-28T01:18:32;93974.44;;;7.08;100.00
10606;BME280;5350;42.698;23.148;2024-02-28T01:20:58;93975.28;;;7.23;100.00
10606;BME280;5350;42.698;23.148;2024-02-28T01:23:25;93976.84;;;7.19;100.00
10606;BME280;5350;42.698;23.148;2024-02-28T01:25:52;93973.69;;;7.22;100.00
10606;BME280;5350;42.698;23.148;2024-02-28T01:28:20;93972.66;;;7.28;100.00
10606;BME280;5350;42.698;23.148;2024-02-28T01:30:46;93975.00;;;7.25;100.00
10606;BME280;5350;42.698;23.148;2024-02-28T01:33:13;93971.34;;;7.21;100.00
10606;BME280;5350;42.698;23.148;2024-02-28T01:35:40;93970.03;;;7.28;100.00
10606;BME280;5350;42.698;23.148;2024-02-28T01:38:06;93982.59;;;7.32;100.00
10606;BME280;5350;42.698;23.148;2024-02-28T01:40:33;93982.59;;;7.21;100.00
10606;BME280;5350;42.698;23.148;2024-02-28T01:43:02;93981.78;;;7.16;100.00
10606;BME280;5350;42.698;23.148;2024-02-28T01:45:31;93975.25;;;7.18;100.00
10606;BME280;5350;42.698;23.148;2024-02-28T01:47:58;93979.47;;;7.30;100.00
10606;BME280;5350;42.698;23.148;2024-02-28T01:50:25;93983.41;;;7.32;100.00
10606;BME280;5350;42.698;23.148;2024-02-28T01:52:52;93978.44;;;7.36;100.00
10606;BME280;5350;42.698;23.148;2024-02-28T01:55:19;93984.16;;;7.43;100.00
10606;BME280;5350;42.698;23.148;2024-02-28T01:57:45;93991.50;;;7.46;100.00
10606;BME280;5350;42.698;23.148;2024-02-28T02:00:13;93979.47;;;7.30;100.00
10606;BME280;5350;42.698;23.148;2024-02-28T02:02:43;93983.13;;;7.28;100.00
10606;BME280;5350;42.698;23.148;2024-02-28T02:05:10;93983.66;;;7.25;100.00
10606;BME280;5350;42.698;23.148;2024-02-28T02:07:37;93985.44;;;7.20;100.00
10606;BME280;5350;42.698;23.148;2024-02-28T02:10:05;93982.03;;;7.04;100.00
10606;BME280;5350;42.698;23.148;2024-02-28T02:12:36;93978.28;;;6.80;100.00
10606;BME280;5350;42.698;23.148;2024-02-28T02:15:03;93967.59;;;6.87;100.00
10606;BME280;5350;42.698;23.148;2024-02-28T02:17:30;93972.63;;;7.13;100.00
10606;BME280;5350;42.698;23.148;2024-02-28T02:19:58;93971.88;;;7.23;100.00
10606;BME280;5350;42.698;23.148;2024-02-28T02:22:27;93973.69;;;7.17;100.00
10606;BME280;5350;42.698;23.148;2024-02-28T02:24:57;93977.84;;;7.13;100.00
10606;BME280;5350;42.698;23.148;2024-02-28T02:27:24;93973.66;;;7.07;100.00
10606;BME280;5350;42.698;23.148;2024-02-28T02:29:51;93975.75;;;7.05;100.00
10606;BME280;5350;42.698;23.148;2024-02-28T02:32:18;93978.34;;;7.05;100.00
10606;BME280;5350;42.698;23.148;2024-02-28T02:34:44;93977.00;;;6.93;100.00
10606;BME280;5350;42.698;23.148;2024-02-28T02:37:11;93970.16;;;6.72;100.00
10606;BME280;5350;42.698;23.148;2024-02-28T02:39:38;93979.81;;;6.61;100.00
10606;BME280;5350;42.698;23.148;2024-02-28T02:42:06;93973.81;;;6.71;100.00
10606;BME280;5350;42.698;23.148;2024-02-28T02:44:33;93977.22;;;6.76;100.00
10606;BME280;5350;42.698;23.148;2024-02-28T02:47:00;93981.16;;;6.79;100.00
10606;BME280;5350;42.698;23.148;2024-02-28T02:49:26;93983.59;;;7.00;100.00
10606;BME280;5350;42.698;23.148;2024-02-28T02:51:53;93982.00;;;6.99;100.00
10606;BME280;5350;42.698;23.148;2024-02-28T02:54:20;93986.72;;;7.02;100.00
10606;BME280;5350;42.698;23.148;2024-02-28T02:56:46;93973.91;;;7.06;100.00
10606;BME280;5350;42.698;23.148;2024-02-28T02:59:14;93977.81;;;7.03;100.00
10606;BME280;5350;42.698;23.148;2024-02-28T03:01:41;93982.53;;;7.01;100.00
10606;BME280;5350;42.698;23.148;2024-02-28T03:04:08;93986.72;;;7.02;100.00
10606;BME280;5350;42.698;23.148;2024-02-28T03:06:34;93993.53;;;7.03;100.00
10606;BME280;5350;42.698;23.148;2024-02-28T03:09:01;93987.78;;;7.06;100.00
10606;BME280;5350;42.698;23.148;2024-02-28T03:11:28;93982.03;;;7.04;100.00
10606;BME280;5350;42.698;23.148;2024-02-28T03:13:55;93988.31;;;7.13;100.00
10606;BME280;5350;42.698;23.148;2024-02-28T03:16:23;93989.88;;;7.09;100.00
10606;BME280;5350;42.698;23.148;2024-02-28T03:18:50;93994.59;;;7.12;100.00
10606;BME280;5350;42.698;23.148;2024-02-28T03:21:16;93988.06;;;7.20;100.00
10606;BME280;5350;42.698;23.148;2024-02-28T03:23:43;93988.28;;;7.03;100.00
10606;BME280;5350;42.698;23.148;2024-02-28T03:26:10;93982.81;;;7.00;100.00
10606;BME280;5350;42.698;23.148;2024-02-28T03:28:36;93988.25;;;6.93;100.00
10606;BME280;5350;42.698;23.148;2024-02-28T03:31:03;93990.88;;;6.88;100.00
10606;BME280;5350;42.698;23.148;2024-02-28T03:33:31;93985.59;;;6.73;100.00
10606;BME280;5350;42.698;23.148;2024-02-28T03:35:58;93991.34;;;6.75;100.00
10606;BME280;5350;42.698;23.148;2024-02-28T03:38:25;93990.00;;;6.68;100.00
10606;BME280;5350;42.698;23.148;2024-02-28T03:40:52;93988.72;;;6.70;100.00
10606;BME280;5350;42.698;23.148;2024-02-28T03:43:18;93991.34;;;6.75;100.00
10606;BME280;5350;42.698;23.148;2024-02-28T03:45:45;93990.06;;;6.78;100.00
10606;BME280;5350;42.698;23.148;2024-02-28T03:48:12;93994.50;;;6.77;100.00
10606;BME280;5350;42.698;23.148;2024-02-28T03:50:40;93993.97;;;6.75;100.00
10606;BME280;5350;42.698;23.148;2024-02-28T03:53:06;93992.69;;;6.78;100.00
10606;BME280;5350;42.698;23.148;2024-02-28T03:55:33;94001.28;;;6.78;100.00
10606;BME280;5350;42.698;23.148;2024-02-28T03:58:00;94003.66;;;6.80;100.00
10606;BME280;5350;42.698;23.148;2024-02-28T04:00:27;94007.06;;;6.85;100.00
10606;BME280;5350;42.698;23.148;2024-02-28T04:02:52;94001.78;;;6.70;100.00
10606;BME280;5350;42.698;23.148;2024-02-28T04:05:19;93996.03;;;6.68;100.00
10606;BME280;5350;42.698;23.148;2024-02-28T04:07:47;94005.41;;;6.64;100.00
10606;BME280;5350;42.698;23.148;2024-02-28T04:10:13;93999.44;;;6.69;100.00
10606;BME280;5350;42.698;23.148;2024-02-28T04:12:42;94002.97;;;6.47;100.00
10606;BME280;5350;42.698;23.148;2024-02-28T04:15:10;94000.06;;;6.34;100.00
10606;BME280;5350;42.698;23.148;2024-02-28T04:17:37;94000.59;;;6.41;100.00
10606;BME280;5350;42.698;23.148;2024-02-28T04:20:08;93993.03;;;6.39;100.00
10606;BME280;5350;42.698;23.148;2024-02-28T04:22:35;94001.66;;;6.45;100.00
10606;BME280;5350;42.698;23.148;2024-02-28T04:25:03;93991.22;;;6.45;100.00
10606;BME280;5350;42.698;23.148;2024-02-28T04:27:30;93990.72;;;6.48;100.00
10606;BME280;5350;42.698;23.148;2024-02-28T04:29:57;93990.09;;;6.31;100.00
10606;BME280;5350;42.698;23.148;2024-02-28T04:32:23;93991.66;;;6.27;100.00
10606;BME280;5350;42.698;23.148;2024-02-28T04:34:49;93994.56;;;6.35;100.00
10606;BME280;5350;42.698;23.148;2024-02-28T04:37:16;93997.44;;;6.39;100.00
10606;BME280;5350;42.698;23.148;2024-02-28T04:39:42;93991.44;;;6.33;100.00
10606;BME280;5350;42.698;23.148;2024-02-28T04:42:11;93987.97;;;6.23;100.00
10606;BME280;5350;42.698;23.148;2024-02-28T04:44:37;93998.47;;;6.33;100.00
10606;BME280;5350;42.698;23.148;2024-02-28T04:47:04;94005.78;;;6.31;100.00
10606;BME280;5350;42.698;23.148;2024-02-28T04:49:31;94006.03;;;6.34;100.00
10606;BME280;5350;42.698;23.148;2024-02-28T04:51:58;94018.88;;;6.36;100.00
10606;BME280;5350;42.698;23.148;2024-02-28T04:54:24;94009.94;;;6.27;100.00
10606;BME280;5350;42.698;23.148;2024-02-28T04:56:51;94018.75;;;6.16;100.00
10606;BME280;5350;42.698;23.148;2024-02-28T04:59:19;94016.97;;;5.85;100.00
10606;BME280;5350;42.698;23.148;2024-02-28T05:01:46;94019.19;;;5.71;100.00
10606;BME280;5350;42.698;23.148;2024-02-28T05:04:13;94024.47;;;5.49;100.00
10606;BME280;5350;42.698;23.148;2024-02-28T05:06:40;94015.75;;;5.39;100.00
10606;BME280;5350;42.698;23.148;2024-02-28T05:09:07;94030.59;;;5.33;100.00
10606;BME280;5350;42.698;23.148;2024-02-28T05:11:34;94020.19;;;5.38;100.00
10606;BME280;5350;42.698;23.148;2024-02-28T05:14:01;94023.78;;;5.59;100.00
10606;BME280;5350;42.698;23.148;2024-02-28T05:16:29;94035.53;;;5.61;100.00
10606;BME280;5350;42.698;23.148;2024-02-28T05:18:55;94032.91;;;5.61;100.00
10606;BME280;5350;42.698;23.148;2024-02-28T05:21:22;94027.25;;;5.69;100.00
10606;BME280;5350;42.698;23.148;2024-02-28T05:23:49;94038.81;;;5.79;100.00
10606;BME280;5350;42.698;23.148;2024-02-28T05:26:15;94042.47;;;5.78;100.00
10606;BME280;5350;42.698;23.148;2024-02-28T05:28:42;94046.41;;;5.53;100.00
10606;BME280;5350;42.698;23.148;2024-02-28T05:31:20;94045.94;;;5.56;100.00
10606;BME280;5350;42.698;23.148;2024-02-28T05:33:50;94046.63;;;5.79;100.00
10606;BME280;5350;42.698;23.148;2024-02-28T05:36:17;94049.53;;;5.82;100.00
10606;BME280;5350;42.698;23.148;2024-02-28T05:38:43;94049.25;;;5.79;100.00
10606;BME280;5350;42.698;23.148;2024-02-28T05:41:10;94051.19;;;5.88;100.00
10606;BME280;5350;42.698;23.148;2024-02-28T05:43:37;94051.13;;;5.83;100.00
10606;BME280;5350;42.698;23.148;2024-02-28T05:46:04;94066.16;;;5.98;100.00
10606;BME280;5350;42.698;23.148;2024-02-28T05:48:31;94068.28;;;6.06;100.00
10606;BME280;5350;42.698;23.148;2024-02-28T05:51:00;94072.25;;;6.08;100.00
10606;BME280;5350;42.698;23.148;2024-02-28T05:53:27;94075.66;;;6.14;100.00
10606;BME280;5350;42.698;23.148;2024-02-28T05:55:57;94080.94;;;6.19;100.00
10606;BME280;5350;42.698;23.148;2024-02-28T05:58:24;94074.44;;;6.21;100.00
10606;BME280;5350;42.698;23.148;2024-02-28T06:00:51;94081.00;;;6.29;100.00
10606;BME280;5350;42.698;23.148;2024-02-28T06:03:18;94078.72;;;6.37;100.00
10606;BME280;5350;42.698;23.148;2024-02-28T06:05:45;94081.38;;;6.47;100.00
10606;BME280;5350;42.698;23.148;2024-02-28T06:08:14;94105.47;;;6.55;100.00
10606;BME280;5350;42.698;23.148;2024-02-28T06:10:40;94089.06;;;6.64;100.00
10606;BME280;5350;42.698;23.148;2024-02-28T06:13:08;94092.00;;;6.73;100.00
10606;BME280;5350;42.698;23.148;2024-02-28T06:15:35;94091.25;;;6.82;100.00
10606;BME280;5350;42.698;23.148;2024-02-28T06:18:02;94091.59;;;6.96;100.00
10606;BME280;5350;42.698;23.148;2024-02-28T06:20:29;94094.50;;;7.04;100.00
10606;BME280;5350;42.698;23.148;2024-02-28T06:22:55;94091.38;;;7.12;100.00
10606;BME280;5350;42.698;23.148;2024-02-28T06:25:23;94095.63;;;7.23;100.00
10606;BME280;5350;42.698;23.148;2024-02-28T06:27:50;94089.38;;;7.35;100.00
10606;BME280;5350;42.698;23.148;2024-02-28T06:30:17;94091.47;;;7.43;100.00
10606;BME280;5350;42.698;23.148;2024-02-28T06:32:44;94105.91;;;7.55;100.00
10606;BME280;5350;42.698;23.148;2024-02-28T06:35:10;94102.53;;;7.65;100.00
10606;BME280;5350;42.698;23.148;2024-02-28T06:37:37;94094.69;;;7.65;100.00
10606;BME280;5350;42.698;23.148;2024-02-28T06:40:05;94101.00;;;7.79;100.00
10606;BME280;5350;42.698;23.148;2024-02-28T06:42:35;94103.13;;;7.92;100.00
10606;BME280;5350;42.698;23.148;2024-02-28T06:45:02;94108.38;;;8.02;100.00
10606;BME280;5350;42.698;23.148;2024-02-28T06:47:30;94102.88;;;8.19;100.00
10606;BME280;5350;42.698;23.148;2024-02-28T06:49:58;94113.91;;;8.31;100.00
10606;BME280;5350;42.698;23.148;2024-02-28T06:52:24;94102.91;;;8.34;100.00
10606;BME280;5350;42.698;23.148;2024-02-28T06:54:51;94106.81;;;8.46;100.00
10606;BME280;5350;42.698;23.148;2024-02-28T06:57:18;94104.47;;;8.55;100.00
10606;BME280;5350;42.698;23.148;2024-02-28T06:59:46;94104.97;;;8.67;100.00
10606;BME280;5350;42.698;23.148;2024-02-28T07:02:13;94108.59;;;8.81;100.00
10606;BME280;5350;42.698;23.148;2024-02-28T07:04:40;94108.34;;;8.77;100.00
10606;BME280;5350;42.698;23.148;2024-02-28T07:07:07;94110.19;;;8.82;100.00
10606;BME280;5350;42.698;23.148;2024-02-28T07:09:34;94103.84;;;8.98;100.00
10606;BME280;5350;42.698;23.148;2024-02-28T07:12:01;94105.66;;;9.03;100.00
10606;BME280;5350;42.698;23.148;2024-02-28T07:14:27;94107.22;;;9.04;100.00
10606;BME280;5350;42.698;23.148;2024-02-28T07:16:55;94111.41;;;9.20;100.00
10606;BME280;5350;42.698;23.148;2024-02-28T07:19:22;94113.47;;;9.28;100.00
10606;BME280;5350;42.698;23.148;2024-02-28T07:21:49;94116.59;;;9.30;100.00
10606;BME280;5350;42.698;23.148;2024-02-28T07:24:16;94109.75;;;9.34;100.00
10606;BME280;5350;42.698;23.148;2024-02-28T07:26:42;94113.88;;;9.55;100.00
10606;BME280;5350;42.698;23.148;2024-02-28T07:29:09;94117.97;;;9.71;100.00
10606;BME280;5350;42.698;23.148;2024-02-28T07:31:36;94121.06;;;9.83;100.00
10606;BME280;5350;42.698;23.148;2024-02-28T07:34:03;94122.84;;;9.93;100.00
10606;BME280;5350;42.698;23.148;2024-02-28T07:36:30;94119.66;;;9.96;100.00
10606;BME280;5350;42.698;23.148;2024-02-28T07:38:57;94121.66;;;10.14;100.00
10606;BME280;5350;42.698;23.148;2024-02-28T07:41:24;94126.75;;;10.39;100.00
10606;BME280;5350;42.698;23.148;2024-02-28T07:43:50;94127.63;;;10.63;100.00
10606;BME280;5350;42.698;23.148;2024-02-28T07:46:17;94129.25;;;10.83;96.53
10606;BME280;5350;42.698;23.148;2024-02-28T07:48:43;94133.00;;;11.05;95.35
10606;BME280;5350;42.698;23.148;2024-02-28T07:51:11;94126.94;;;11.28;96.25
10606;BME280;5350;42.698;23.148;2024-02-28T07:53:38;94124.38;;;11.47;93.45
10606;BME280;5350;42.698;23.148;2024-02-28T07:56:06;94119.41;;;11.64;90.06
10606;BME280;5350;42.698;23.148;2024-02-28T07:58:32;94127.66;;;11.81;91.16
10606;BME280;5350;42.698;23.148;2024-02-28T08:00:59;94128.59;;;11.90;90.09
10606;BME280;5350;42.698;23.148;2024-02-28T08:03:26;94124.53;;;11.98;88.66
10606;BME280;5350;42.698;23.148;2024-02-28T08:05:53;94126.16;;;12.13;87.35
10606;BME280;5350;42.698;23.148;2024-02-28T08:08:22;94123.88;;;12.25;85.37
10606;BME280;5350;42.698;23.148;2024-02-28T08:10:49;94116.72;;;12.44;83.58
10606;BME280;5350;42.698;23.148;2024-02-28T08:13:17;94121.34;;;12.52;85.12
10606;BME280;5350;42.698;23.148;2024-02-28T08:15:43;94123.09;;;12.43;82.83
10606;BME280;5350;42.698;23.148;2024-02-28T08:18:10;94121.28;;;12.57;82.59
10606;BME280;5350;42.698;23.148;2024-02-28T08:20:37;94116.97;;;12.61;81.19
10606;BME280;5350;42.698;23.148;2024-02-28T08:23:04;94119.69;;;12.56;83.49
10606;BME280;5350;42.698;23.148;2024-02-28T08:25:32;94117.59;;;12.71;84.01
10606;BME280;5350;42.698;23.148;2024-02-28T08:27:59;94123.44;;;12.68;81.69
10606;BME280;5350;42.698;23.148;2024-02-28T08:30:25;94120.94;;;12.77;81.44
10606;BME280;5350;42.698;23.148;2024-02-28T08:32:52;94122.81;;;12.90;82.03
10606;BME280;5350;42.698;23.148;2024-02-28T08:35:19;94112.50;;;13.07;82.73
10606;BME280;5350;42.698;23.148;2024-02-28T08:37:45;94107.13;;;13.12;80.22
10606;BME280;5350;42.698;23.148;2024-02-28T08:40:12;94115.56;;;13.28;81.33
10606;BME280;5350;42.698;23.148;2024-02-28T08:42:41;94111.25;;;13.32;79.22
10606;BME280;5350;42.698;23.148;2024-02-28T08:45:10;94114.09;;;13.49;78.62
10606;BME280;5350;42.698;23.148;2024-02-28T08:47:36;94107.81;;;13.58;76.79
10606;BME280;5350;42.698;23.148;2024-02-28T08:50:03;94122.19;;;13.80;75.41
10606;BME280;5350;42.698;23.148;2024-02-28T08:52:30;94116.09;;;13.93;73.82
10606;BME280;5350;42.698;23.148;2024-02-28T08:54:57;94109.06;;;13.88;74.08
10606;BME280;5350;42.698;23.148;2024-02-28T08:57:24;94126.28;;;13.86;74.54
10606;BME280;5350;42.698;23.148;2024-02-28T08:59:52;94119.81;;;13.92;73.66
10606;BME280;5350;42.698;23.148;2024-02-28T09:02:18;94113.56;;;13.88;75.13
10606;BME280;5350;42.698;23.148;2024-02-28T09:04:45;94114.66;;;14.22;74.36
10606;BME280;5350;42.698;23.148;2024-02-28T09:07:16;94115.25;;;14.33;72.33
10606;BME280;5350;42.698;23.148;2024-02-28T09:09:45;94119.88;;;14.50;72.54
10606;BME280;5350;42.698;23.148;2024-02-28T09:12:12;94121.66;;;14.63;69.55
10606;BME280;5350;42.698;23.148;2024-02-28T09:14:39;94119.97;;;14.67;69.60
10606;BME280;5350;42.698;23.148;2024-02-28T09:17:07;94122.41;;;14.77;70.06
10606;BME280;5350;42.698;23.148;2024-02-28T09:19:34;94115.16;;;14.91;69.30
10606;BME280;5350;42.698;23.148;2024-02-28T09:22:00;94117.59;;;15.09;68.64
10606;BME280;5350;42.698;23.148;2024-02-28T09:24:27;94121.22;;;15.22;67.33
10606;BME280;5350;42.698;23.148;2024-02-28T09:26:54;94119.47;;;15.48;64.82
10606;BME280;5350;42.698;23.148;2024-02-28T09:29:20;94105.78;;;15.55;64.89
10606;BME280;5350;42.698;23.148;2024-02-28T09:31:47;94096.50;;;15.74;64.24
10606;BME280;5350;42.698;23.148;2024-02-28T09:34:15;94102.00;;;15.95;61.67
10606;BME280;5350;42.698;23.148;2024-02-28T09:36:42;94094.06;;;16.12;59.90
10606;BME280;5350;42.698;23.148;2024-02-28T09:39:10;94092.47;;;16.20;60.24
10606;BME280;5350;42.698;23.148;2024-02-28T09:41:37;94095.13;;;16.28;61.50
10606;BME280;5350;42.698;23.148;2024-02-28T09:44:05;94096.69;;;16.38;59.23
10606;BME280;5350;42.698;23.148;2024-02-28T09:46:32;94098.44;;;16.51;58.00
10606;BME280;5350;42.698;23.148;2024-02-28T09:49:01;94103.13;;;16.45;57.94
10606;BME280;5350;42.698;23.148;2024-02-28T09:51:32;94097.94;;;16.40;55.83
10606;BME280;5350;42.698;23.148;2024-02-28T09:53:59;94088.44;;;16.39;58.36
10606;BME280;5350;42.698;23.148;2024-02-28T09:56:27;94086.72;;;16.35;58.79
10606;BME280;5350;42.698;23.148;2024-02-28T09:58:54;94092.63;;;16.40;58.61
10606;BME280;5350;42.698;23.148;2024-02-28T10:01:22;94077.81;;;16.22;57.47
10606;BME280;5350;42.698;23.148;2024-02-28T10:03:51;94087.81;;;16.08;57.55
10606;BME280;5350;42.698;23.148;2024-02-28T10:06:18;94080.78;;;16.12;57.79
10606;BME280;5350;42.698;23.148;2024-02-28T10:08:46;94084.03;;;16.09;57.44
10606;BME280;5350;42.698;23.148;2024-02-28T10:11:17;94085.16;;;16.08;59.05
10606;BME280;5350;42.698;23.148;2024-02-28T10:13:44;94076.69;;;16.15;59.58
10606;BME280;5350;42.698;23.148;2024-02-28T10:16:11;94080.00;;;16.20;59.53
10606;BME280;5350;42.698;23.148;2024-02-28T10:18:37;94072.97;;;16.24;59.58
10606;BME280;5350;42.698;23.148;2024-02-28T10:21:04;94072.03;;;16.37;59.73
10606;BME280;5350;42.698;23.148;2024-02-28T10:23:31;94061.59;;;16.49;58.93
10606;BME280;5350;42.698;23.148;2024-02-28T10:26:00;94065.91;;;16.71;58.12
10606;BME280;5350;42.698;23.148;2024-02-28T10:28:27;94058.44;;;16.64;57.70
10606;BME280;5350;42.698;23.148;2024-02-28T10:30:54;94052.28;;;16.90;57.92
10606;BME280;5350;42.698;23.148;2024-02-28T10:33:21;94053.94;;;17.03;57.01
10606;BME280;5350;42.698;23.148;2024-02-28T10:35:50;94066.88;;;17.13;56.12
10606;BME280;5350;42.698;23.148;2024-02-28T10:38:18;94045.16;;;17.11;54.24
10606;BME280;5350;42.698;23.148;2024-02-28T10:40:44;94052.97;;;17.16;54.43
10606;BME280;5350;42.698;23.148;2024-02-28T10:43:16;94049.78;;;17.31;53.22
10606;BME280;5350;42.698;23.148;2024-02-28T10:45:43;94041.25;;;17.46;52.45
10606;BME280;5350;42.698;23.148;2024-02-28T10:48:11;94045.84;;;17.37;53.15
10606;BME280;5350;42.698;23.148;2024-02-28T10:50:40;94041.13;;;17.42;52.58
10606;BME280;5350;42.698;23.148;2024-02-28T10:53:13;94037.81;;;17.54;51.45
10606;BME280;5350;42.698;23.148;2024-02-28T10:55:40;94027.03;;;17.42;51.75
10606;BME280;5350;42.698;23.148;2024-02-28T10:58:10;94022.09;;;17.32;52.04
10606;BME280;5350;42.698;23.148;2024-02-28T11:00:39;94021.38;;;17.23;51.84
10606;BME280;5350;42.698;23.148;2024-02-28T11:03:08;94021.91;;;17.08;53.32
10606;BME280;5350;42.698;23.148;2024-02-28T11:05:36;94012.69;;;17.05;53.12
10606;BME280;5350;42.698;23.148;2024-02-28T11:08:05;94016.91;;;17.06;53.08
10606;BME280;5350;42.698;23.148;2024-02-28T11:10:32;94018.06;;;17.26;51.31
10606;BME280;5350;42.698;23.148;2024-02-28T11:12:59;94007.25;;;17.31;50.87
10606;BME280;5350;42.698;23.148;2024-02-28T11:15:26;94014.84;;;17.49;50.90
10606;BME280;5350;42.698;23.148;2024-02-28T11:17:54;94009.47;;;17.58;49.94
10606;BME280;5350;42.698;23.148;2024-02-28T11:20:21;94006.22;;;17.73;48.86
10606;BME280;5350;42.698;23.148;2024-02-28T11:22:48;93983.00;;;17.82;48.73
10606;BME280;5350;42.698;23.148;2024-02-28T11:25:15;94000.66;;;17.87;48.64
10606;BME280;5350;42.698;23.148;2024-02-28T11:27:46;93998.25;;;17.73;47.63
10606;BME280;5350;42.698;23.148;2024-02-28T11:30:13;93992.09;;;17.81;48.65
10606;BME280;5350;42.698;23.148;2024-02-28T11:32:40;93993.78;;;18.06;47.79
10606;BME280;5350;42.698;23.148;2024-02-28T11:35:09;93980.59;;;18.43;48.33
10606;BME280;5350;42.698;23.148;2024-02-28T11:37:37;93980.03;;;18.70;48.47
10606;BME280;5350;42.698;23.148;2024-02-28T11:40:07;93975.19;;;19.08;47.35
10606;BME280;5350;42.698;23.148;2024-02-28T11:42:34;93947.09;;;19.23;44.69
10606;BME280;5350;42.698;23.148;2024-02-28T11:45:01;93949.41;;;19.60;45.20
10606;BME280;5350;42.698;23.148;2024-02-28T11:47:31;93945.31;;;19.90;43.97
10606;BME280;5350;42.698;23.148;2024-02-28T11:49:58;93942.19;;;19.88;44.38
10606;BME280;5350;42.698;23.148;2024-02-28T11:52:26;93938.13;;;19.79;42.59
10606;BME280;5350;42.698;23.148;2024-02-28T11:54:53;93934.09;;;19.45;42.73
10606;BME280;5350;42.698;23.148;2024-02-28T11:57:20;93929.22;;;19.35;43.21
10606;BME280;5350;42.698;23.148;2024-02-28T11:59:46;93936.59;;;19.66;44.18
10606;BME280;5350;42.698;23.148;2024-02-28T12:02:14;93929.16;;;19.99;41.99
10606;BME280;5350;42.698;23.148;2024-02-28T12:04:41;93928.84;;;20.28;41.58
10606;BME280;5350;42.698;23.148;2024-02-28T12:07:08;93916.25;;;20.29;40.97
10606;BME280;5350;42.698;23.148;2024-02-28T12:09:36;93922.41;;;20.45;40.89
10606;BME280;5350;42.698;23.148;2024-02-28T12:12:06;93906.75;;;20.75;40.67
10606;BME280;5350;42.698;23.148;2024-02-28T12:14:36;93927.97;;;20.83;39.54
10606;BME280;5350;42.698;23.148;2024-02-28T12:17:04;93916.91;;;20.53;39.21
10606;BME280;5350;42.698;23.148;2024-02-28T12:19:31;93905.25;;;19.90;39.23
10606;BME280;5350;42.698;23.148;2024-02-28T12:21:57;93902.75;;;20.10;40.34
10606;BME280;5350;42.698;23.148;2024-02-28T12:24:24;93900.13;;;19.98;39.91
10606;BME280;5350;42.698;23.148;2024-02-28T12:26:52;93907.88;;;20.03;41.66
10606;BME280;5350;42.698;23.148;2024-02-28T12:29:19;93915.06;;;20.14;40.24
10606;BME280;5350;42.698;23.148;2024-02-28T12:31:46;93907.75;;;20.39;38.98
10606;BME280;5350;42.698;23.148;2024-02-28T12:34:13;93905.97;;;20.58;38.91
10606;BME280;5350;42.698;23.148;2024-02-28T12:36:40;93898.38;;;20.76;38.25
10606;BME280;5350;42.698;23.148;2024-02-28T12:39:07;93904.50;;;20.92;38.32
10606;BME280;5350;42.698;23.148;2024-02-28T12:41:36;93894.28;;;21.29;37.91
10606;BME280;5350;42.698;23.148;2024-02-28T12:44:05;93892.91;;;21.35;37.80
10606;BME280;5350;42.698;23.148;2024-02-28T12:46:31;93897.63;;;21.41;37.58
10606;BME280;5350;42.698;23.148;2024-02-28T12:48:58;93904.19;;;21.44;37.33
10606;BME280;5350;42.698;23.148;2024-02-28T12:51:40;93895.06;;;21.29;36.40
10606;BME280;5350;42.698;23.148;2024-02-28T12:54:08;93895.63;;;21.38;36.41
10606;BME280;5350;42.698;23.148;2024-02-28T12:56:35;93891.03;;;21.55;37.11
10606;BME280;5350;42.698;23.148;2024-02-28T12:59:02;93900.81;;;21.82;36.49